createdAt,value
2022-12-13T00:02:01.831Z,59.40
2022-12-13T00:07:05.066Z,59.30
2022-12-13T00:12:08.438Z,59.40
2022-12-13T00:17:12.731Z,59.60
2022-12-13T00:22:16.801Z,59.90
2022-12-13T00:27:19.735Z,59.80
2022-12-13T00:32:24.749Z,60.10
2022-12-13T00:37:27.713Z,60.40
2022-12-13T00:42:30.648Z,60.30
2022-12-13T00:47:34.977Z,60.40
2022-12-13T00:52:38.167Z,60.40
2022-12-13T00:57:41.092Z,60.40
2022-12-13T01:02:46.011Z,60.50
2022-12-13T01:07:49.057Z,60.50
2022-12-13T01:12:52.017Z,60.30
2022-12-13T01:17:56.418Z,60.40
2022-12-13T01:22:59.378Z,60.40
2022-12-13T01:28:02.454Z,60.30
2022-12-13T01:33:14.447Z,60.30
2022-12-13T01:38:18.624Z,60.20
2022-12-13T01:43:21.651Z,60.00
2022-12-13T01:48:28.618Z,60.10
2022-12-13T01:53:34.848Z,60.20
2022-12-13T01:58:38.963Z,60.90
2022-12-13T02:03:43.930Z,60.30
2022-12-13T02:08:47.783Z,60.30
2022-12-13T02:13:50.761Z,60.30
2022-12-13T02:19:16.413Z,60.40
2022-12-13T02:24:46.791Z,60.20
2022-12-13T02:30:26.879Z,60.20
2022-12-13T02:35:39.711Z,60.10
2022-12-13T02:40:47.262Z,60.10
2022-12-13T02:45:54.442Z,60.10
2022-12-13T02:50:59.761Z,60.20
2022-12-13T02:56:02.827Z,60.30
2022-12-13T03:01:27.655Z,60.90
2022-12-13T03:06:41.059Z,59.80
2022-12-13T03:12:14.505Z,59.70
2022-12-13T03:17:21.611Z,59.80
2022-12-13T03:22:24.780Z,59.90
2022-12-13T03:27:28.281Z,60.00
2022-12-13T03:39:24.157Z,60.40
2022-12-13T03:44:31.395Z,60.30
2022-12-13T03:49:35.789Z,60.10
2022-12-13T03:54:40.214Z,59.90
2022-12-13T03:59:48.346Z,59.80
2022-12-13T04:04:51.357Z,59.80
2022-12-13T04:09:55.844Z,59.90
2022-12-13T04:14:58.753Z,59.90
2022-12-13T04:20:01.686Z,59.90
2022-12-13T04:25:06.788Z,59.80
2022-12-13T04:30:10.834Z,59.90
2022-12-13T04:35:14.095Z,59.90
2022-12-13T04:40:21.864Z,59.90
2022-12-13T04:45:25.486Z,59.50
2022-12-13T04:50:28.838Z,59.40
2022-12-13T04:55:33.155Z,60.20
2022-12-13T05:00:36.305Z,59.60
2022-12-13T05:05:40.563Z,59.70
2022-12-13T05:10:44.988Z,59.70
2022-12-13T05:15:52.170Z,59.70
2022-12-13T05:20:58.324Z,59.70
2022-12-13T05:26:02.888Z,59.50
2022-12-13T05:37:34.851Z,59.30
2022-12-13T05:42:39.942Z,59.40
2022-12-13T05:47:42.952Z,59.40
2022-12-13T05:52:46.550Z,59.50
2022-12-13T05:57:51.318Z,59.50
2022-12-13T06:02:54.886Z,59.50
2022-12-13T06:07:59.037Z,59.40
2022-12-13T06:13:21.150Z,59.50
2022-12-13T06:18:26.703Z,59.70
2022-12-13T06:23:31.759Z,59.80
2022-12-13T06:28:36.707Z,59.90
2022-12-13T06:33:40.031Z,59.50
2022-12-13T06:38:43.513Z,59.30
2022-12-13T06:43:49.301Z,59.10
2022-12-13T06:48:53.161Z,59.30
2022-12-13T06:53:56.403Z,59.50
2022-12-13T06:59:05.182Z,59.80
2022-12-13T07:04:29.957Z,59.90
2022-12-13T07:09:32.548Z,59.90
2022-12-13T07:14:40.623Z,59.80
2022-12-13T07:19:45.120Z,59.60
2022-12-13T07:24:48.508Z,59.30
2022-12-13T07:29:52.813Z,58.90
2022-12-13T07:34:56.035Z,59.00
2022-12-13T07:40:04.051Z,59.00
2022-12-13T07:45:10.608Z,59.00
2022-12-13T07:50:24.816Z,59.20
2022-12-13T07:55:33.407Z,59.10
2022-12-13T08:00:40.981Z,59.30
2022-12-13T08:05:49.478Z,59.30
2022-12-13T08:11:03.175Z,59.50
2022-12-13T08:16:26.404Z,59.60
2022-12-13T08:27:00.979Z,59.80
2022-12-13T08:32:09.184Z,59.90
2022-12-13T08:37:12.433Z,60.20
2022-12-13T08:42:19.208Z,60.40
2022-12-13T08:47:26.951Z,60.40
2022-12-13T08:52:30.470Z,60.60
2022-12-13T08:57:36.516Z,60.70
2022-12-13T09:02:40.991Z,60.60
2022-12-13T09:07:44.143Z,60.70
2022-12-13T09:12:47.971Z,60.50
2022-12-13T09:17:52.988Z,60.40
2022-12-13T09:23:01.638Z,60.40
2022-12-13T09:28:07.635Z,60.40
2022-12-13T09:33:28.151Z,60.30
2022-12-13T09:38:33.440Z,60.10
2022-12-13T09:43:43.196Z,60.10
2022-12-13T09:48:48.917Z,59.90
2022-12-13T09:53:54.053Z,59.80
2022-12-13T09:58:58.716Z,59.80
2022-12-13T10:04:03.027Z,59.70
2022-12-13T10:09:09.430Z,59.80
2022-12-13T10:14:18.109Z,59.80
2022-12-13T10:19:30.068Z,59.80
2022-12-13T10:24:50.776Z,59.80
2022-12-13T10:30:06.719Z,59.80
2022-12-13T10:35:29.048Z,59.80
2022-12-13T10:40:34.176Z,59.70
2022-12-13T10:45:37.544Z,59.90
2022-12-13T10:50:42.103Z,60.00
2022-12-13T10:55:45.471Z,60.20
2022-12-13T11:00:49.375Z,60.30
2022-12-13T11:06:04.524Z,60.40
2022-12-13T11:11:09.245Z,60.30
2022-12-13T11:16:23.958Z,60.40
2022-12-13T11:21:30.961Z,60.30
2022-12-13T11:26:37.395Z,60.30
2022-12-13T11:31:49.841Z,60.20
2022-12-13T11:37:02.519Z,60.20
2022-12-13T11:42:11.961Z,60.40
2022-12-13T11:47:20.805Z,60.40
2022-12-13T11:52:31.098Z,60.50
2022-12-13T11:57:44.030Z,60.50
2022-12-13T12:02:52.077Z,60.30
2022-12-13T12:08:43.625Z,60.20
2022-12-13T12:13:29.577Z,60.10
2022-12-13T12:18:33.236Z,59.70
2022-12-13T12:23:54.689Z,59.80
2022-12-13T12:29:19.793Z,59.80
2022-12-13T12:34:36.232Z,59.70
2022-12-13T12:39:57.758Z,59.70
2022-12-13T12:45:26.999Z,59.60
2022-12-13T12:50:43.338Z,59.30
2022-12-13T12:55:55.419Z,59.50
2022-12-13T13:01:14.714Z,59.70
2022-12-13T13:06:22.177Z,59.90
2022-12-13T13:11:28.990Z,59.80
2022-12-13T13:16:35.541Z,59.40
2022-12-13T13:21:48.606Z,59.40
2022-12-13T13:26:55.276Z,59.40
2022-12-13T13:32:02.178Z,60.00
2022-12-13T13:37:29.978Z,59.50
2022-12-13T13:42:34.488Z,59.40
2022-12-13T13:47:42.826Z,59.50
2022-12-13T13:53:00.626Z,59.50
2022-12-13T13:58:49.754Z,59.60
2022-12-13T14:04:14.079Z,59.50
2022-12-13T14:09:39.024Z,59.50
2022-12-13T14:15:17.629Z,59.30
2022-12-13T14:20:45.461Z,59.30
2022-12-13T14:26:18.953Z,59.40
2022-12-13T14:31:26.245Z,59.40
2022-12-13T14:36:32.312Z,59.50
2022-12-13T14:41:45.858Z,59.60
2022-12-13T14:46:56.276Z,59.50
2022-12-13T14:52:04.093Z,59.40
2022-12-13T14:57:07.158Z,59.30
2022-12-13T15:02:31.211Z,59.20
2022-12-13T15:07:38.058Z,59.00
2022-12-13T15:12:43.331Z,59.00
2022-12-13T15:17:47.712Z,58.80
2022-12-13T15:23:01.486Z,58.80
2022-12-13T15:28:07.883Z,58.90
2022-12-13T15:33:20.745Z,58.60
2022-12-13T15:38:28.513Z,58.70
2022-12-13T15:43:37.303Z,59.20
2022-12-13T15:48:48.641Z,59.00
2022-12-13T15:54:05.191Z,58.80
2022-12-13T15:59:26.084Z,58.90
2022-12-13T16:04:32.978Z,58.80
2022-12-13T16:09:38.258Z,58.90
2022-12-13T16:14:48.798Z,58.90
2022-12-13T16:19:55.191Z,59.00
2022-12-13T16:24:59.493Z,58.90
2022-12-13T16:30:02.477Z,58.70
2022-12-13T16:35:07.904Z,58.60
2022-12-13T16:40:26.270Z,58.60
2022-12-13T16:45:41.658Z,58.70
2022-12-13T16:50:48.253Z,58.80
2022-12-13T16:56:00.974Z,58.90
2022-12-13T17:01:09.686Z,58.80
2022-12-13T17:06:17.749Z,58.70
2022-12-13T17:11:20.725Z,58.80
2022-12-13T17:16:23.755Z,58.80
2022-12-13T17:21:29.671Z,58.80
2022-12-13T17:26:32.790Z,58.80
2022-12-13T17:31:36.455Z,58.90
2022-12-13T17:36:40.856Z,58.80
2022-12-13T17:41:43.831Z,58.70
2022-12-13T17:46:57.907Z,58.70
2022-12-13T17:52:02.877Z,58.90
2022-12-13T17:57:06.032Z,58.80
2022-12-13T18:02:13.505Z,58.80
2022-12-13T18:07:17.936Z,58.80
2022-12-13T18:12:20.925Z,58.80
2022-12-13T18:17:46.669Z,58.80
2022-12-13T18:22:51.521Z,58.80
2022-12-13T18:28:00.839Z,58.90
2022-12-13T18:33:05.505Z,58.90
2022-12-13T18:38:10.503Z,58.80
2022-12-13T18:43:13.511Z,58.80
2022-12-13T18:48:17.327Z,58.80
2022-12-13T18:53:23.316Z,58.80
2022-12-13T18:58:26.751Z,58.90
2022-12-13T19:03:30.201Z,59.10
2022-12-13T19:08:36.499Z,59.00
2022-12-13T19:13:39.630Z,59.00
2022-12-13T19:18:42.605Z,59.00
2022-12-13T19:23:54.909Z,59.00
2022-12-13T19:29:02.073Z,59.00
2022-12-13T19:34:05.360Z,58.90
2022-12-13T19:39:12.303Z,58.70
2022-12-13T19:44:15.291Z,58.50
2022-12-13T19:49:21.030Z,58.30
2022-12-13T19:54:26.591Z,58.40
2022-12-13T19:59:29.557Z,58.30
2022-12-13T20:04:33.028Z,58.60
2022-12-13T20:09:39.738Z,58.80
2022-12-13T20:14:43.125Z,58.90
2022-12-13T20:19:46.026Z,58.90
2022-12-13T20:24:50.361Z,58.80
2022-12-13T20:29:53.483Z,58.90
2022-12-13T20:34:56.655Z,59.00
2022-12-13T20:40:01.276Z,58.90
2022-12-13T20:45:04.477Z,58.90
2022-12-13T20:50:09.067Z,58.80
2022-12-13T20:55:13.794Z,58.80
2022-12-13T21:00:18.457Z,58.80
2022-12-13T21:05:21.449Z,58.90
2022-12-13T21:10:25.779Z,59.00
2022-12-13T21:15:28.711Z,59.00
2022-12-13T21:20:31.807Z,59.00
2022-12-13T21:25:36.202Z,58.90
2022-12-13T21:30:39.118Z,58.80
2022-12-13T21:35:42.104Z,58.80
2022-12-13T21:40:48.009Z,59.00
2022-12-13T21:45:51.191Z,59.10
2022-12-13T21:50:54.155Z,59.80
2022-12-13T21:56:12.612Z,59.20
2022-12-13T22:01:15.649Z,59.10
2022-12-13T22:06:18.670Z,59.10
2022-12-13T22:11:23.006Z,59.00
2022-12-13T22:16:26.806Z,58.90
2022-12-13T22:21:29.939Z,58.80
2022-12-13T22:26:34.239Z,58.70
2022-12-13T22:31:37.199Z,58.70
2022-12-13T22:36:40.196Z,58.70
2022-12-13T22:41:45.877Z,58.60
2022-12-13T22:46:48.999Z,58.70
2022-12-13T22:51:51.933Z,58.80
2022-12-13T22:56:56.278Z,58.90
2022-12-13T23:02:02.587Z,58.90
2022-12-13T23:07:08.466Z,58.90
2022-12-13T23:12:31.047Z,59.50
2022-12-13T23:17:34.372Z,58.90
2022-12-13T23:22:37.623Z,58.80
2022-12-13T23:27:41.936Z,58.80
2022-12-13T23:32:53.825Z,58.80
2022-12-13T23:37:56.872Z,58.60
2022-12-13T23:43:01.206Z,58.50
2022-12-13T23:48:04.266Z,58.50
2022-12-13T23:53:07.223Z,58.50
2022-12-13T23:58:11.608Z,58.30
